Terminal Aerodrome Forecast
Issued by NWS

Current Version | Previous Version | Text Only | Print | Product List | Glossary On
Versions: 1 2 3 4 5 6 7 8 9 10 11 12 13 14
000
FTUS43 KOAX 261618 AAA
TAFSNY
TAF AMD
KSNY 261618Z 2616/2712 01011KT 1SM -SN BR OVC030
      TEMPO 2616/2618 3SM -SN BR OVC022
     FM270300 32007KT P6SM SCT018 BKN030=

USA.gov is the U.S. government's official web portal to all federal, state and local government web resources and services.